Time;durP1;ratioP1;P1;durP2;ratioP2;P2;SDS_P1;SDS_P2;PMS_P1;PMS_P2;Temp;Humidity;BMP_temperature;BMP_pressure;BME280_temperature;BME280_humidity;BME280_pressure;Samples;Min_cycle;Max_cycle;Signal;HPM_P1;HPM_P2
2022/07/13 00:00:04;;;;;;;428.40;384.97;;;;;;;20.85;47.87;99910.34;339881;29;1202;-73
2022/07/13 00:00:14;;;;;;;423.70;380.50;;;;;;;20.85;47.88;99910.34;342592;28;957;-73
2022/07/13 00:00:26;;;;;;;425.90;382.37;;;;;;;20.85;47.76;99910.34;341080;29;908;-73
2022/07/13 00:00:37;;;;;;;426.38;382.45;;;;;;;20.86;47.87;99912.06;341220;28;1484;-73
2022/07/13 00:00:47;;;;;;;425.47;381.53;;;;;;;20.85;47.80;99910.34;342627;28;813;-73
2022/07/13 00:00:58;;;;;;;418.50;374.92;;;;;;;20.82;47.78;99912.41;339875;29;858;-73
2022/07/13 00:01:08;;;;;;;425.50;381.73;;;;;;;20.77;48.13;99907.47;341615;28;1524;-73
2022/07/13 00:01:19;;;;;;;435.52;391.45;;;;;;;20.79;48.15;99910.88;342575;28;788;-73
2022/07/13 00:01:30;;;;;;;451.95;407.35;;;;;;;20.81;48.12;99910.72;343910;28;909;-73
2022/07/13 00:01:41;;;;;;;462.33;417.55;;;;;;;20.82;48.12;99915.91;342568;28;1304;-73
2022/07/13 00:01:51;;;;;;;465.67;420.87;;;;;;;20.82;47.84;99915.91;341263;28;1468;-73
2022/07/13 00:02:01;;;;;;;466.90;422.23;;;;;;;20.82;48.05;99907.94;340904;28;1707;-73
2022/07/13 00:02:12;;;;;;;472.63;427.87;;;;;;;20.82;47.74;99907.94;342958;28;4999;-74
2022/07/13 00:02:22;;;;;;;481.33;436.50;;;;;;;20.81;48.12;99914.22;343109;28;5128;-74
2022/07/13 00:02:33;;;;;;;497.43;452.17;;;;;;;20.80;47.74;99912.53;341050;29;1941;-74
2022/07/13 00:02:43;;;;;;;514.92;469.33;;;;;;;20.80;47.84;99911.69;340996;29;2736;-74
2022/07/13 00:02:53;;;;;;;532.90;486.80;;;;;;;20.79;47.95;99907.38;343682;28;1564;-74
2022/07/13 00:03:04;;;;;;;521.42;475.77;;;;;;;20.79;47.79;99905.53;343032;28;1197;-74
2022/07/13 00:03:14;;;;;;;506.47;461.13;;;;;;;20.80;47.78;99911.69;342562;28;1722;-74
2022/07/13 00:03:25;;;;;;;492.50;447.50;;;;;;;20.78;47.62;99909.19;339958;29;1301;-74
2022/07/13 00:03:36;;;;;;;501.25;455.88;;;;;;;20.78;48.04;99914.50;339884;29;1359;-74
2022/07/13 00:03:46;;;;;;;508.27;462.65;;;;;;;20.76;48.01;99911.09;342607;28;972;-74
2022/07/13 00:03:57;;;;;;;505.97;460.47;;;;;;;20.77;48.04;99911.94;341893;28;1741;-74
2022/07/13 00:04:08;;;;;;;493.25;448.20;;;;;;;20.76;47.84;99916.44;341094;29;1478;-74
2022/07/13 00:04:18;;;;;;;470.35;425.85;;;;;;;20.76;48.06;99911.09;342479;28;1350;-74
2022/07/13 00:04:28;;;;;;;444.60;400.57;;;;;;;20.76;47.95;99908.44;343888;28;1194;-74
2022/07/13 00:04:39;;;;;;;436.33;392.40;;;;;;;20.75;48.25;99909.41;342499;28;1196;-74
2022/07/13 00:04:49;;;;;;;428.90;385.03;;;;;;;20.75;47.96;99909.41;342645;28;904;-74
2022/07/13 00:05:00;;;;;;;443.50;399.48;;;;;;;20.77;47.99;99907.47;342607;28;801;-74
2022/07/13 00:05:10;;;;;;;449.97;405.83;;;;;;;20.75;47.78;99904.09;341307;29;1003;-73
2022/07/13 00:05:20;;;;;;;454.27;410.03;;;;;;;20.76;48.24;99908.44;342473;28;1334;-73
2022/07/13 00:05:31;;;;;;;453.95;409.70;;;;;;;20.76;48.05;99905.78;340321;29;1395;-73
2022/07/13 00:05:41;;;;;;;458.47;414.17;;;;;;;20.75;48.16;99904.09;342175;29;937;-73
2022/07/13 00:05:52;;;;;;;456.15;411.90;;;;;;;20.75;48.21;99906.75;341290;29;768;-73
2022/07/13 00:06:02;;;;;;;453.43;409.30;;;;;;;20.75;48.00;99906.75;342459;28;1178;-73
2022/07/13 00:06:13;;;;;;;452.00;407.80;;;;;;;20.75;48.33;99904.09;342289;28;1758;-73
2022/07/13 00:06:23;;;;;;;458.87;414.50;;;;;;;20.77;48.28;99907.47;343855;28;1118;-73
2022/07/13 00:06:33;;;;;;;455.75;411.50;;;;;;;20.79;47.90;99910.88;342681;28;783;-73
2022/07/13 00:06:44;;;;;;;455.50;411.23;;;;;;;20.81;48.17;99908.91;342542;28;1267;-73
2022/07/13 00:06:54;;;;;;;448.98;404.90;;;;;;;20.79;47.77;99910.88;344002;28;997;-73
2022/07/13 00:07:05;;;;;;;451.50;407.20;;;;;;;20.77;48.19;99915.47;341058;28;1837;-73
2022/07/13 00:07:15;;;;;;;455.23;410.70;;;;;;;20.76;48.10;99905.78;339751;29;1516;-73
2022/07/13 00:07:25;;;;;;;458.58;414.02;;;;;;;20.76;48.15;99911.09;341334;29;775;-73
2022/07/13 00:07:36;;;;;;;455.57;411.20;;;;;;;20.74;48.02;99905.06;342422;28;1178;-73
2022/07/13 00:07:46;;;;;;;453.35;409.13;;;;;;;20.70;48.01;99908.91;341241;29;869;-73
2022/07/13 00:07:56;;;;;;;459.30;414.73;;;;;;;20.72;47.86;99914.97;342389;28;1859;-73
2022/07/13 00:08:07;;;;;;;460.20;415.58;;;;;;;20.69;48.30;99901.91;342611;28;790;-73
2022/07/13 00:08:17;;;;;;;458.17;413.67;;;;;;;20.71;48.10;99904.44;344545;28;1216;-73
2022/07/13 00:08:28;;;;;;;450.83;406.77;;;;;;;20.71;47.87;99907.97;342657;28;833;-73
2022/07/13 00:08:38;;;;;;;452.00;407.80;;;;;;;20.71;48.06;99901.78;341240;29;822;-73
2022/07/13 00:08:48;;;;;;;450.67;406.50;;;;;;;20.72;47.84;99904.34;343812;28;1480;-73
2022/07/13 00:08:59;;;;;;;450.10;405.83;;;;;;;20.72;48.04;99906.16;342488;28;1364;-73
2022/07/13 00:09:09;;;;;;;454.03;409.60;;;;;;;20.73;48.14;99900.72;344941;28;860;-73
2022/07/13 00:09:20;;;;;;;447.57;403.27;;;;;;;20.72;48.23;99906.16;342448;28;1188;-73
2022/07/13 00:09:30;;;;;;;452.05;407.63;;;;;;;20.71;48.04;99905.28;342632;28;964;-73
2022/07/13 00:09:40;;;;;;;451.17;406.77;;;;;;;20.67;48.01;99906.50;343921;28;1845;-73
2022/07/13 00:09:51;;;;;;;460.80;416.20;;;;;;;20.67;47.92;99905.66;342652;28;949;-73
2022/07/13 00:10:02;;;;;;;457.40;412.90;;;;;;;20.66;48.09;99910.13;342693;28;825;-73
2022/07/13 00:10:13;;;;;;;451.15;407.02;;;;;;;20.64;47.92;99906.75;342525;28;892;-73
2022/07/13 00:10:23;;;;;;;457.13;412.77;;;;;;;20.65;48.27;99903.13;343865;28;1548;-73
2022/07/13 00:10:34;;;;;;;459.60;415.05;;;;;;;20.65;48.18;99903.13;343843;28;1228;-73
2022/07/13 00:10:44;;;;;;;463.60;418.77;;;;;;;20.65;47.98;99900.44;341324;29;1026;-73
2022/07/13 00:10:55;;;;;;;455.52;410.95;;;;;;;20.65;48.06;99903.13;342355;29;818;-73
2022/07/13 00:11:05;;;;;;;451.40;407.13;;;;;;;20.65;48.06;99905.78;341152;29;1145;-73
2022/07/13 00:11:15;;;;;;;448.17;404.05;;;;;;;20.68;48.36;99902.03;340545;28;3485;-73
2022/07/13 00:11:26;;;;;;;444.50;400.53;;;;;;;20.69;48.15;99903.72;338669;29;4250;-73
2022/07/13 00:11:36;;;;;;;441.17;397.27;;;;;;;20.69;47.93;99909.88;342092;28;5304;-73
2022/07/13 00:11:47;;;;;;;437.55;393.55;;;;;;;20.70;47.91;99906.25;342639;28;1834;-73
2022/07/13 00:11:57;;;;;;;441.48;397.45;;;;;;;20.71;48.01;99907.13;341053;28;5269;-73
2022/07/13 00:12:08;;;;;;;440.67;396.67;;;;;;;20.69;47.86;99904.56;339746;29;1874;-73
2022/07/13 00:12:18;;;;;;;434.27;390.53;;;;;;;20.70;48.25;99902.75;341143;28;1344;-73
2022/07/13 00:12:28;;;;;;;425.30;381.65;;;;;;;20.70;48.03;99906.25;341125;28;2033;-73
2022/07/13 00:12:39;;;;;;;422.87;379.20;;;;;;;20.70;48.08;99905.41;342496;28;1307;-73
2022/07/13 00:12:49;;;;;;;432.95;388.92;;;;;;;20.69;48.05;99903.72;338661;29;810;-73
2022/07/13 00:13:00;;;;;;;432.67;388.73;;;;;;;20.71;48.21;99901.78;341179;29;2070;-73
2022/07/13 00:13:10;;;;;;;436.05;392.08;;;;;;;20.71;47.95;99910.63;341025;28;1472;-73
2022/07/13 00:13:20;;;;;;;433.30;389.57;;;;;;;20.72;47.96;99908.81;341245;28;1320;-73
2022/07/13 00:13:31;;;;;;;435.10;391.30;;;;;;;20.71;47.74;99901.78;343367;28;944;-73
2022/07/13 00:13:41;;;;;;;435.30;391.47;;;;;;;20.70;47.94;99900.94;342459;28;1447;-73
2022/07/13 00:13:52;;;;;;;436.87;392.87;;;;;;;20.70;47.98;99916.06;342677;28;869;-73
2022/07/13 00:14:02;;;;;;;439.10;395.10;;;;;;;20.70;47.96;99906.25;342536;28;1090;-73
2022/07/13 00:14:13;;;;;;;436.73;392.67;;;;;;;20.72;48.00;99903.47;341187;29;1210;-73
2022/07/13 00:14:23;;;;;;;435.58;391.50;;;;;;;20.72;48.10;99904.34;339826;29;1197;-73
2022/07/13 00:14:34;;;;;;;442.97;398.60;;;;;;;20.70;47.94;99908.06;342518;28;1197;-73
2022/07/13 00:14:44;;;;;;;447.35;402.95;;;;;;;20.69;47.96;99904.56;342277;28;1592;-73
2022/07/13 00:14:54;;;;;;;446.53;402.23;;;;;;;20.69;48.15;99904.56;341309;29;798;-73
2022/07/13 00:15:05;;;;;;;442.98;398.92;;;;;;;20.70;48.02;99911.59;341175;29;1310;-73
2022/07/13 00:15:16;;;;;;;441.67;397.77;;;;;;;20.70;47.96;99903.59;342431;28;1320;-73
2022/07/13 00:15:26;;;;;;;441.57;397.57;;;;;;;20.71;47.93;99909.78;342412;28;814;-73
2022/07/13 00:15:37;;;;;;;439.83;395.70;;;;;;;20.70;48.04;99911.59;342614;28;755;-73
2022/07/13 00:15:47;;;;;;;432.63;388.67;;;;;;;20.70;47.82;99906.25;343882;28;1226;-73
2022/07/13 00:15:58;;;;;;;437.60;393.52;;;;;;;20.70;48.10;99908.91;342550;28;1402;-73
2022/07/13 00:16:08;;;;;;;440.03;395.87;;;;;;;20.71;47.78;99907.97;340534;29;1374;-73
2022/07/13 00:16:18;;;;;;;447.23;402.93;;;;;;;20.69;48.16;99912.56;341380;29;973;-73
2022/07/13 00:16:29;;;;;;;442.10;398.08;;;;;;;20.69;48.23;99915.22;340975;28;1906;-73
2022/07/13 00:16:39;;;;;;;439.13;395.17;;;;;;;20.70;48.17;99910.75;341063;29;1918;-73
2022/07/13 00:16:49;;;;;;;431.55;387.77;;;;;;;20.69;47.87;99904.56;338613;29;970;-73
2022/07/13 00:17:00;;;;;;;437.50;393.60;;;;;;;20.69;48.06;99903.72;342599;28;1929;-73
2022/07/13 00:17:10;;;;;;;439.88;396.05;;;;;;;20.69;47.83;99907.22;341108;28;1268;-73
2022/07/13 00:17:21;;;;;;;443.47;399.50;;;;;;;20.69;47.87;99909.88;341195;29;1038;-73
2022/07/13 00:17:31;;;;;;;437.13;393.30;;;;;;;20.70;47.78;99916.91;341354;29;961;-73
2022/07/13 00:17:41;;;;;;;439.50;395.58;;;;;;;20.69;47.86;99909.88;341283;29;1057;-73
2022/07/13 00:17:52;;;;;;;437.90;394.10;;;;;;;20.68;47.94;99910.00;341259;29;818;-73
2022/07/13 00:18:02;;;;;;;440.65;396.77;;;;;;;20.68;47.81;99910.84;338633;29;1508;-73
2022/07/13 00:18:13;;;;;;;437.20;392.97;;;;;;;20.65;48.09;99913.75;339809;29;1348;-73
2022/07/13 00:18:24;;;;;;;435.23;391.13;;;;;;;20.64;48.27;99906.75;341222;29;1336;-73
2022/07/13 00:18:34;;;;;;;441.30;397.02;;;;;;;20.62;48.13;99908.66;341180;29;924;-73
2022/07/13 00:18:44;;;;;;;445.40;401.33;;;;;;;20.63;48.41;99910.38;341580;29;814;-73
2022/07/13 00:18:55;;;;;;;448.63;404.43;;;;;;;20.60;48.31;99915.91;342992;28;1094;-73
2022/07/13 00:19:05;;;;;;;443.25;399.33;;;;;;;20.55;48.25;99907.44;343883;28;1366;-73
2022/07/13 00:19:16;;;;;;;444.73;400.67;;;;;;;20.53;48.60;99914.69;341165;29;969;-73
2022/07/13 00:19:26;;;;;;;441.55;397.50;;;;;;;20.57;48.21;99905.50;342577;28;1041;-73
2022/07/13 00:19:36;;;;;;;443.50;399.43;;;;;;;20.56;48.44;99906.47;339839;29;1280;-73
2022/07/13 00:19:47;;;;;;;436.92;393.13;;;;;;;20.56;48.01;99914.47;341156;28;1403;-73
2022/07/13 00:19:57;;;;;;;443.33;399.47;;;;;;;20.57;48.01;99916.16;342414;28;1316;-73
2022/07/13 00:20:08;;;;;;;448.20;404.03;;;;;;;20.57;48.26;99906.38;342613;28;864;-73
2022/07/13 00:20:19;;;;;;;452.10;407.80;;;;;;;20.57;47.94;99909.03;342587;28;834;-73
2022/07/13 00:20:29;;;;;;;452.02;407.63;;;;;;;20.57;47.82;99911.69;340446;28;3947;-73
2022/07/13 00:20:39;;;;;;;450.67;406.30;;;;;;;20.59;47.77;99908.91;340785;28;4142;-73
2022/07/13 00:20:50;;;;;;;449.23;404.80;;;;;;;20.61;47.82;99911.44;342339;28;1856;-73
2022/07/13 00:21:00;;;;;;;453.63;408.93;;;;;;;20.61;48.07;99906.97;345025;28;2040;-73
2022/07/13 00:21:11;;;;;;;451.67;407.33;;;;;;;20.61;48.02;99912.28;345058;28;5274;-73
2022/07/13 00:21:21;;;;;;;453.20;408.93;;;;;;;20.61;48.15;99917.63;343517;28;1681;-73
2022/07/13 00:21:31;;;;;;;448.37;404.50;;;;;;;20.61;48.00;99908.78;343284;28;1952;-73
2022/07/13 00:21:42;;;;;;;443.90;399.90;;;;;;;20.60;47.93;99907.94;342580;28;825;-73
2022/07/13 00:21:54;;;;;;;439.93;396.03;;;;;;;20.60;47.88;99899.97;341193;28;1328;-73
2022/07/13 00:22:05;;;;;;;438.42;394.63;;;;;;;20.61;47.92;99906.97;341048;28;1949;-73
2022/07/13 00:22:16;;;;;;;436.85;393.17;;;;;;;20.61;47.61;99906.97;342449;28;1524;-73
2022/07/13 00:22:26;;;;;;;440.27;396.43;;;;;;;20.59;48.17;99908.91;343996;28;1182;-73
2022/07/13 00:22:37;;;;;;;447.77;403.67;;;;;;;20.60;48.14;99913.25;342495;28;1348;-73
2022/07/13 00:22:47;;;;;;;454.87;410.60;;;;;;;20.61;47.89;99912.28;341235;29;865;-73
2022/07/13 00:22:58;;;;;;;448.42;404.42;;;;;;;20.61;47.68;99904.31;341078;29;1225;-73
2022/07/13 00:23:08;;;;;;;450.03;405.83;;;;;;;20.62;47.84;99911.31;341155;28;1316;-73
2022/07/13 00:23:19;;;;;;;456.45;411.83;;;;;;;20.60;47.95;99913.25;341077;28;1718;-73
2022/07/13 00:23:29;;;;;;;460.53;415.80;;;;;;;20.62;47.82;99916.66;343944;28;825;-73
2022/07/13 00:23:40;;;;;;;457.20;412.60;;;;;;;20.61;47.77;99906.97;343808;28;1531;-73
2022/07/13 00:23:50;;;;;;;450.20;405.92;;;;;;;20.62;47.50;99908.66;343960;28;1856;-73
2022/07/13 00:24:01;;;;;;;447.93;403.73;;;;;;;20.63;47.81;99909.50;344039;28;1898;-73
2022/07/13 00:24:14;;;;;;;442.35;398.38;;;;;;;20.64;47.44;99911.22;345556;28;840;-73
2022/07/13 00:24:24;;;;;;;447.50;403.45;;;;;;;20.64;47.45;99914.72;342429;28;4883;-73
2022/07/13 00:24:35;;;;;;;451.53;407.40;;;;;;;20.65;47.64;99910.25;341236;29;833;-73
2022/07/13 00:24:45;;;;;;;450.83;406.83;;;;;;;20.66;47.31;99906.63;341243;29;877;-73
2022/07/13 00:24:55;;;;;;;442.43;398.60;;;;;;;20.66;47.63;99903.97;341261;29;993;-73
2022/07/13 00:25:06;;;;;;;434.52;391.00;;;;;;;20.67;47.44;99910.97;339788;28;1221;-73
2022/07/13 00:25:17;;;;;;;435.70;392.13;;;;;;;20.67;47.34;99910.97;339919;29;944;-73
2022/07/13 00:25:27;;;;;;;437.38;393.75;;;;;;;20.68;47.70;99915.31;340603;29;1740;-73
2022/07/13 00:25:38;;;;;;;445.70;401.67;;;;;;;20.67;47.79;99911.81;343755;28;1596;-73
2022/07/13 00:25:48;;;;;;;445.55;401.55;;;;;;;20.67;47.52;99911.81;339855;29;1240;-73
2022/07/13 00:25:58;;;;;;;450.50;406.33;;;;;;;20.66;48.01;99912.78;339880;29;988;-73
2022/07/13 00:26:09;;;;;;;450.33;406.10;;;;;;;20.68;47.73;99920.66;342548;28;1348;-73
2022/07/13 00:26:19;;;;;;;448.27;404.07;;;;;;;20.67;47.76;99911.81;341240;29;870;-73
2022/07/13 00:26:30;;;;;;;451.07;406.77;;;;;;;20.67;47.75;99905.66;342621;28;857;-73
2022/07/13 00:26:40;;;;;;;456.77;412.27;;;;;;;20.67;47.80;99913.63;340344;29;893;-73
2022/07/13 00:26:51;;;;;;;459.02;414.48;;;;;;;20.64;47.99;99909.41;341447;28;1640;-73
2022/07/13 00:27:01;;;;;;;454.17;409.73;;;;;;;20.65;47.92;99912.91;342631;28;1882;-73
2022/07/13 00:27:11;;;;;;;445.63;401.67;;;;;;;20.63;47.95;99909.50;342300;28;1880;-73
2022/07/13 00:27:22;;;;;;;448.98;404.98;;;;;;;20.62;47.57;99916.66;343818;28;1777;-73
2022/07/13 00:27:32;;;;;;;455.07;410.93;;;;;;;20.62;48.10;99911.31;342457;28;1616;-73
2022/07/13 00:27:42;;;;;;;463.23;418.63;;;;;;;20.65;48.22;99918.22;342584;28;845;-73
2022/07/13 00:27:53;;;;;;;452.70;408.30;;;;;;;20.65;48.11;99918.22;342633;28;908;-73
2022/07/13 00:28:03;;;;;;;445.70;401.57;;;;;;;20.64;47.78;99917.38;339830;29;1260;-73
2022/07/13 00:28:14;;;;;;;436.03;392.20;;;;;;;20.65;47.88;99916.41;341209;29;956;-73
2022/07/13 00:28:25;;;;;;;434.48;390.63;;;;;;;20.64;47.94;99906.75;342625;28;864;-73
2022/07/13 00:28:36;;;;;;;439.17;395.23;;;;;;;20.64;47.82;99911.22;342580;28;920;-73
2022/07/13 00:28:46;;;;;;;448.92;404.73;;;;;;;20.62;47.98;99908.66;343701;28;1547;-73
2022/07/13 00:28:57;;;;;;;447.67;403.63;;;;;;;20.62;48.08;99905.16;339834;29;1342;-73
2022/07/13 00:29:07;;;;;;;443.43;399.50;;;;;;;20.63;47.83;99913.03;341101;29;1320;-73
2022/07/13 00:29:17;;;;;;;435.60;391.95;;;;;;;20.63;47.75;99910.38;342673;28;1215;-73
2022/07/13 00:29:28;;;;;;;437.00;393.37;;;;;;;20.64;47.75;99912.06;344279;28;1165;-73
2022/07/13 00:29:38;;;;;;;441.55;397.70;;;;;;;20.64;47.69;99912.06;342128;28;3444;-73
2022/07/13 00:29:48;;;;;;;446.60;402.47;;;;;;;20.64;47.86;99911.22;341631;28;4061;-73
2022/07/13 00:29:59;;;;;;;449.03;404.80;;;;;;;20.64;47.48;99920.03;342171;28;2182;-73
2022/07/13 00:30:10;;;;;;;448.67;404.38;;;;;;;20.64;47.66;99912.06;342280;28;2346;-73
2022/07/13 00:30:20;;;;;;;443.33;399.10;;;;;;;20.64;47.63;99911.22;341124;29;3186;-73
2022/07/13 00:30:31;;;;;;;441.57;397.27;;;;;;;20.64;47.74;99916.53;341117;29;1185;-73
2022/07/13 00:30:41;;;;;;;435.23;391.25;;;;;;;20.64;47.71;99912.06;342409;28;1310;-73
2022/07/13 00:30:51;;;;;;;438.80;394.70;;;;;;;20.64;47.74;99914.72;340990;29;2068;-73
2022/07/13 00:31:02;;;;;;;439.77;395.40;;;;;;;20.65;47.99;99913.75;341120;29;1748;-73
2022/07/13 00:31:12;;;;;;;435.30;391.23;;;;;;;20.63;48.10;99913.03;339760;29;1432;-73
2022/07/13 00:31:22;;;;;;;428.20;384.47;;;;;;;20.65;47.90;99913.75;339929;29;829;-73
2022/07/13 00:31:33;;;;;;;425.77;382.27;;;;;;;20.64;47.87;99917.38;339761;29;1282;-73
2022/07/13 00:31:46;;;;;;;432.27;388.47;;;;;;;20.64;47.72;99911.22;341124;29;1246;-73
2022/07/13 00:31:57;;;;;;;425.60;382.02;;;;;;;20.65;47.70;99908.44;343778;28;5073;-73
2022/07/13 00:32:07;;;;;;;421.05;377.55;;;;;;;20.66;47.84;99915.44;344962;28;1869;-73
2022/07/13 00:32:17;;;;;;;424.53;381.10;;;;;;;20.67;47.93;99916.28;342305;28;1638;-73
2022/07/13 00:32:28;;;;;;;429.65;385.98;;;;;;;20.67;47.95;99916.28;342527;28;1202;-73
2022/07/13 00:32:38;;;;;;;433.83;390.07;;;;;;;20.66;47.59;99915.44;341197;29;857;-73
2022/07/13 00:32:48;;;;;;;437.17;393.23;;;;;;;20.67;47.59;99911.81;342550;28;975;-73
2022/07/13 00:32:59;;;;;;;440.40;396.23;;;;;;;20.65;47.78;99916.41;339942;29;857;-73
2022/07/13 00:33:09;;;;;;;440.00;395.70;;;;;;;20.65;47.70;99919.06;341958;28;1539;-73
2022/07/13 00:33:20;;;;;;;431.27;387.17;;;;;;;20.64;47.52;99909.41;341596;28;3556;-73
2022/07/13 00:33:30;;;;;;;429.23;385.43;;;;;;;20.65;47.71;99921.72;340993;28;5305;-73
2022/07/13 00:33:40;;;;;;;431.40;387.45;;;;;;;20.62;47.80;99911.31;345216;28;799;-73
2022/07/13 00:33:51;;;;;;;437.03;392.97;;;;;;;20.60;47.79;99915.91;343879;28;825;-73
2022/07/13 00:34:01;;;;;;;436.23;392.20;;;;;;;20.60;47.94;99913.25;343606;28;2413;-73
2022/07/13 00:34:12;;;;;;;440.03;396.10;;;;;;;20.58;47.73;99912.53;342426;28;1227;-73
2022/07/13 00:34:22;;;;;;;437.73;393.87;;;;;;;20.60;47.70;99905.28;341223;29;974;-73
2022/07/13 00:34:32;;;;;;;436.80;392.95;;;;;;;20.58;47.81;99910.72;342567;28;1302;-73
2022/07/13 00:34:43;;;;;;;429.20;385.50;;;;;;;20.56;47.78;99919.78;342605;28;852;-73
2022/07/13 00:34:53;;;;;;;427.75;383.98;;;;;;;20.52;47.44;99911.19;342604;28;861;-73
2022/07/13 00:35:04;;;;;;;427.40;383.80;;;;;;;20.52;47.45;99913.84;342334;28;1484;-73
2022/07/13 00:35:15;;;;;;;430.30;386.75;;;;;;;20.55;47.49;99912.75;341117;29;886;-73
2022/07/13 00:35:25;;;;;;;435.42;391.63;;;;;;;20.57;47.39;99916.16;341203;29;802;-73
2022/07/13 00:35:35;;;;;;;442.37;398.23;;;;;;;20.57;47.44;99914.34;342413;28;1796;-73
2022/07/13 00:35:46;;;;;;;436.63;392.77;;;;;;;20.57;47.34;99910.84;341251;29;1247;-73
2022/07/13 00:35:56;;;;;;;437.85;394.00;;;;;;;20.57;47.57;99911.69;341175;29;1205;-73
2022/07/13 00:36:06;;;;;;;442.27;398.30;;;;;;;20.60;47.23;99910.59;342529;28;907;-73
2022/07/13 00:36:17;;;;;;;450.95;406.65;;;;;;;20.59;47.31;99914.22;342531;28;893;-73
2022/07/13 00:36:27;;;;;;;448.80;404.50;;;;;;;20.59;47.60;99914.22;341286;29;857;-73
2022/07/13 00:36:38;;;;;;;440.67;396.70;;;;;;;20.59;47.33;99914.22;341180;29;1285;-73
2022/07/13 00:36:48;;;;;;;435.13;391.40;;;;;;;20.59;47.48;99914.22;340852;29;1972;-73
2022/07/13 00:36:58;;;;;;;431.43;387.83;;;;;;;20.59;47.57;99912.41;342417;28;1294;-73
2022/07/13 00:37:09;;;;;;;435.48;391.73;;;;;;;20.59;47.56;99914.22;343392;28;2082;-73
2022/07/13 00:37:19;;;;;;;437.40;393.70;;;;;;;20.61;47.49;99917.63;340805;28;2094;-73
2022/07/13 00:37:30;;;;;;;441.55;397.73;;;;;;;20.63;47.36;99921.00;341190;29;1229;-73
2022/07/13 00:37:40;;;;;;;448.20;404.13;;;;;;;20.62;47.27;99911.31;342489;28;1173;-73
2022/07/13 00:37:50;;;;;;;449.43;405.30;;;;;;;20.62;47.12;99914.00;342547;28;932;-73
2022/07/13 00:38:01;;;;;;;444.52;400.67;;;;;;;20.63;47.04;99917.50;342355;28;921;-73
2022/07/13 00:38:11;;;;;;;437.97;394.27;;;;;;;20.61;47.30;99912.28;341221;29;814;-73
2022/07/13 00:38:22;;;;;;;434.08;390.38;;;;;;;20.61;47.09;99914.94;341143;29;1420;-73
2022/07/13 00:38:34;;;;;;;433.80;390.20;;;;;;;20.62;47.00;99910.47;341269;29;877;-73
2022/07/13 00:38:44;;;;;;;425.35;382.02;;;;;;;20.62;47.14;99914.00;342529;28;1279;-73
2022/07/13 00:38:55;;;;;;;424.50;381.33;;;;;;;20.61;47.11;99916.75;342577;28;881;-73
2022/07/13 00:39:05;;;;;;;425.80;382.80;;;;;;;20.58;46.99;99917.84;343506;28;1771;-73
2022/07/13 00:39:16;;;;;;;435.15;391.80;;;;;;;20.58;46.96;99913.38;339881;28;2865;-73
2022/07/13 00:39:26;;;;;;;434.50;390.97;;;;;;;20.59;47.14;99914.22;341495;28;5146;-73
2022/07/13 00:39:36;;;;;;;435.25;391.35;;;;;;;20.59;46.85;99915.06;342313;28;3134;-73
2022/07/13 00:39:47;;;;;;;436.17;392.10;;;;;;;20.58;46.95;99917.84;341009;29;2560;-73
2022/07/13 00:39:57;;;;;;;435.53;391.43;;;;;;;20.58;46.99;99917.84;341060;29;2979;-73
2022/07/13 00:40:08;;;;;;;433.60;389.83;;;;;;;20.60;46.85;99913.25;343795;28;1214;-73
2022/07/13 00:40:18;;;;;;;425.92;382.65;;;;;;;20.60;46.86;99910.59;343929;28;865;-73
2022/07/13 00:40:29;;;;;;;425.13;381.97;;;;;;;20.56;46.90;99914.47;342527;28;855;-73
2022/07/13 00:40:39;;;;;;;426.08;382.80;;;;;;;20.47;46.87;99910.69;343907;28;790;-73
2022/07/13 00:40:49;;;;;;;435.17;391.50;;;;;;;20.42;47.30;99914.66;343898;28;1494;-73
2022/07/13 00:41:00;;;;;;;443.20;399.20;;;;;;;20.44;47.06;99915.41;341197;29;740;-73
2022/07/13 00:41:10;;;;;;;445.70;401.73;;;;;;;20.43;47.03;99914.56;339928;29;889;-73
2022/07/13 00:41:21;;;;;;;446.73;402.73;;;;;;;20.42;47.40;99912.00;341083;28;1548;-73
2022/07/13 00:41:31;;;;;;;447.33;403.25;;;;;;;20.39;46.95;99912.25;342464;28;1327;-73
2022/07/13 00:41:47;;;;;;;450.13;405.93;;;;;;;20.39;47.17;99909.59;341125;29;1175;-73
2022/07/13 00:41:58;;;;;;;446.88;402.80;;;;;;;20.39;46.97;99914.91;341066;29;5073;-73
2022/07/13 00:42:08;;;;;;;445.83;401.80;;;;;;;20.36;47.00;99907.16;340902;29;1872;-73
2022/07/13 00:42:19;;;;;;;443.50;399.40;;;;;;;20.32;47.13;99908.34;342489;28;823;-73
2022/07/13 00:42:29;;;;;;;447.48;403.27;;;;;;;20.30;47.48;99907.63;341106;28;1334;-73
2022/07/13 00:42:39;;;;;;;456.87;412.37;;;;;;;20.30;47.26;99916.44;339748;29;1476;-73
2022/07/13 00:42:50;;;;;;;464.35;419.52;;;;;;;20.33;46.98;99915.38;338473;29;1324;-73
2022/07/13 00:43:00;;;;;;;472.43;427.37;;;;;;;20.35;47.16;99911.63;341135;28;1280;-73
2022/07/13 00:43:11;;;;;;;475.40;430.30;;;;;;;20.37;47.20;99909.66;342128;28;774;-73
2022/07/13 00:43:21;;;;;;;476.67;431.53;;;;;;;20.40;46.94;99916.59;345116;28;1289;-73
2022/07/13 00:43:32;;;;;;;474.40;429.40;;;;;;;20.42;46.85;99912.84;342603;28;904;-73
2022/07/13 00:43:42;;;;;;;468.80;423.80;;;;;;;20.42;46.70;99914.66;342592;28;983;-73
2022/07/13 00:43:52;;;;;;;467.60;422.70;;;;;;;20.46;46.62;99918.78;342369;28;2390;-73
2022/07/13 00:44:09;;;;;;;463.50;418.73;;;;;;;20.47;46.76;99916.00;343788;28;1233;-73
2022/07/13 00:44:19;;;;;;;465.30;420.70;;;;;;;20.49;46.62;99918.56;341031;29;1434;-73
2022/07/13 00:44:30;;;;;;;462.95;418.42;;;;;;;20.50;46.68;99912.28;342562;28;909;-73
2022/07/13 00:44:40;;;;;;;460.63;416.10;;;;;;;20.53;46.67;99917.34;341055;29;1209;-73
2022/07/13 00:44:50;;;;;;;463.25;418.60;;;;;;;20.55;46.59;99915.44;342450;28;1198;-73
2022/07/13 00:45:01;;;;;;;461.57;416.93;;;;;;;20.56;46.85;99911.81;339927;29;866;-73
2022/07/13 00:45:11;;;;;;;466.75;421.98;;;;;;;20.56;46.33;99909.13;341209;29;887;-73
2022/07/13 00:45:22;;;;;;;466.10;421.40;;;;;;;20.55;46.77;99910.94;341151;29;1459;-73
2022/07/13 00:45:32;;;;;;;465.80;421.23;;;;;;;20.56;46.68;99910.00;342223;28;1278;-73
2022/07/13 00:45:42;;;;;;;469.95;425.25;;;;;;;20.57;46.56;99911.69;343834;28;1248;-73
2022/07/13 00:45:53;;;;;;;469.83;425.13;;;;;;;20.58;46.66;99912.53;341096;29;1752;-73
2022/07/13 00:46:03;;;;;;;466.38;421.73;;;;;;;20.58;46.47;99912.53;342552;28;950;-73
2022/07/13 00:46:14;;;;;;;464.47;419.83;;;;;;;20.57;46.51;99905.50;339770;29;1375;-73
2022/07/13 00:46:24;;;;;;;466.90;422.20;;;;;;;20.56;46.91;99915.31;343895;28;1078;-73
2022/07/13 00:46:38;;;;;;;465.17;420.57;;;;;;;20.59;46.76;99914.22;343854;28;956;-73
2022/07/13 00:46:53;;;;;;;457.67;413.40;;;;;;;20.59;46.37;99908.91;342436;28;5283;-73
2022/07/13 00:47:04;;;;;;;451.13;407.02;;;;;;;20.59;46.49;99914.22;342397;28;1873;-73
2022/07/13 00:47:14;;;;;;;446.65;402.58;;;;;;;20.59;46.59;99908.91;345160;28;947;-73
2022/07/13 00:47:27;;;;;;;454.83;410.43;;;;;;;20.50;46.62;99912.28;343776;28;1394;-73
2022/07/13 00:47:37;;;;;;;449.95;405.75;;;;;;;20.42;46.85;99918.19;343478;28;1477;-73
2022/07/13 00:47:49;;;;;;;451.37;407.13;;;;;;;20.36;47.03;99907.16;342520;28;830;-73
2022/07/13 00:47:59;;;;;;;444.13;400.00;;;;;;;20.35;47.26;99908.13;342502;28;864;-73
2022/07/13 00:48:09;;;;;;;443.40;399.20;;;;;;;20.30;47.26;99907.63;346464;28;1391;-73
2022/07/13 00:48:20;;;;;;;450.77;406.45;;;;;;;20.30;47.08;99912.94;343862;28;927;-72
2022/07/13 00:48:30;;;;;;;456.37;411.87;;;;;;;20.32;47.08;99903.88;342979;28;4036;-73
2022/07/13 00:48:41;;;;;;;460.40;415.70;;;;;;;20.35;46.94;99905.47;343043;28;3243;-73